Time;durP1;ratioP1;P1;durP2;ratioP2;P2;SDS_P1;SDS_P2;PMS_P1;PMS_P2;Temp;Humidity;BMP_temperature;BMP_pressure;BME280_temperature;BME280_humidity;BME280_pressure;Samples;Min_cycle;Max_cycle;Signal;HPM_P1;HPM_P2
2022/06/06 00:01:47;;;;;;;18.25;11.85;;;15.40;99.90;;;;;;5086709;28;20064;-68
2022/06/06 00:04:13;;;;;;;18.77;12.40;;;15.40;99.90;;;;;;5084567;28;20478;-68
2022/06/06 00:06:40;;;;;;;15.25;11.38;;;15.40;99.90;;;;;;5083342;28;20055;-68
2022/06/06 00:09:07;;;;;;;21.55;13.30;;;15.40;99.90;;;;;;5084021;28;20059;-68
2022/06/06 00:11:34;;;;;;;19.10;13.18;;;15.50;99.90;;;;;;5088877;28;20043;-68
2022/06/06 00:14:00;;;;;;;21.65;12.23;;;15.40;99.90;;;;;;5086073;28;20048;-69
2022/06/06 00:16:25;;;;;;;16.98;12.38;;;15.40;99.90;;;;;;5083403;28;20131;-69
2022/06/06 00:18:51;;;;;;;20.08;13.43;;;15.40;99.90;;;;;;5088727;28;20040;-69
2022/06/06 00:21:17;;;;;;;17.83;12.90;;;15.40;99.90;;;;;;5080000;28;20051;-68
2022/06/06 00:23:42;;;;;;;16.73;12.13;;;15.40;99.90;;;;;;5085348;28;20550;-68
2022/06/06 00:26:11;;;;;;;16.23;12.15;;;15.40;99.90;;;;;;5086775;28;20454;-69
2022/06/06 00:28:39;;;;;;;17.63;13.15;;;15.50;99.90;;;;;;5081528;28;20048;-68
2022/06/06 00:36:36;;;;;;;14.93;11.70;;;15.50;99.90;;;;;;5081979;28;20409;-69
2022/06/06 00:39:04;;;;;;;14.45;11.63;;;15.50;99.90;;;;;;5086213;28;20473;-68
2022/06/06 00:41:30;;;;;;;19.73;12.43;;;15.50;99.90;;;;;;5082743;28;20066;-69
2022/06/06 00:44:14;;;;;;;17.63;13.23;;;15.50;99.90;;;;;;5069295;28;20040;-68
2022/06/06 00:46:44;;;;;;;20.98;13.65;;;15.50;99.90;;;;;;5082239;28;20127;-69
2022/06/06 00:49:17;;;;;;;20.02;13.45;;;15.50;99.90;;;;;;5089052;28;20048;-68
2022/06/06 00:51:44;;;;;;;16.13;12.93;;;15.50;99.90;;;;;;5075223;28;20040;-69
2022/06/06 00:54:10;;;;;;;17.75;13.05;;;15.50;99.90;;;;;;5090748;28;20062;-69
2022/06/06 00:56:50;;;;;;;18.20;13.27;;;15.50;99.90;;;;;;5088346;28;20052;-69
2022/06/06 00:59:19;;;;;;;16.73;12.38;;;15.50;99.90;;;;;;5092191;28;20057;-69
2022/06/06 01:01:48;;;;;;;18.85;13.73;;;15.50;99.90;;;;;;5089330;28;20064;-69
2022/06/06 01:04:16;;;;;;;24.05;13.57;;;15.50;99.90;;;;;;5103234;28;20043;-69
2022/06/06 01:06:45;;;;;;;19.30;14.00;;;15.50;99.90;;;;;;5083286;28;20048;-68
2022/06/06 01:09:12;;;;;;;18.63;14.20;;;15.50;99.90;;;;;;5086853;28;20390;-68
2022/06/06 01:11:41;;;;;;;21.70;13.95;;;15.50;99.90;;;;;;5083921;28;20055;-68
2022/06/06 01:14:09;;;;;;;24.77;15.35;;;15.50;99.90;;;;;;5085704;28;20052;-68
2022/06/06 01:16:45;;;;;;;26.88;16.02;;;15.40;99.90;;;;;;5072592;28;20051;-68
2022/06/06 01:19:23;;;;;;;22.90;16.08;;;15.50;99.90;;;;;;5069089;28;20056;-68
2022/06/06 01:22:17;;;;;;;24.95;15.48;;;15.40;99.90;;;;;;5075313;28;20097;-68
2022/06/06 01:25:20;;;;;;;24.88;16.10;;;15.40;99.90;;;;;;5089041;28;20040;-67
2022/06/06 01:28:23;;;;;;;34.10;17.63;;;15.40;99.90;;;;;;5089333;28;20049;-68
2022/06/06 01:30:55;;;;;;;35.47;17.63;;;15.40;99.90;;;;;;5050218;28;20465;-66
2022/06/06 01:33:21;;;;;;;28.00;16.33;;;15.40;99.90;;;;;;5085791;28;20161;-68
2022/06/06 01:35:50;;;;;;;36.72;16.95;;;15.40;99.90;;;;;;5088332;28;20128;-69
2022/06/06 01:38:21;;;;;;;36.67;17.35;;;15.40;99.90;;;;;;5087531;28;20119;-68
2022/06/06 01:41:03;;;;;;;31.48;17.50;;;15.30;99.90;;;;;;5084371;28;20075;-68
2022/06/06 01:43:54;;;;;;;29.40;16.15;;;15.30;99.90;;;;;;5089218;28;20051;-68
2022/06/06 01:46:26;;;;;;;24.98;15.73;;;15.30;99.90;;;;;;5088426;28;20539;-68
2022/06/06 01:48:53;;;;;;;30.67;16.27;;;15.20;99.90;;;;;;5089298;28;20906;-68
2022/06/06 01:51:27;;;;;;;27.50;14.65;;;15.10;99.90;;;;;;5083934;28;20406;-70
2022/06/06 01:53:53;;;;;;;23.17;14.00;;;15.10;99.90;;;;;;5089397;28;20054;-70
2022/06/06 01:56:32;;;;;;;29.95;14.20;;;15.00;99.90;;;;;;5083439;28;20036;-69
2022/06/06 01:58:58;;;;;;;23.05;13.95;;;15.00;99.90;;;;;;5077856;28;20565;-69
2022/06/06 02:01:24;;;;;;;26.77;13.88;;;14.90;99.90;;;;;;5078909;28;20056;-68
2022/06/06 02:03:50;;;;;;;25.25;12.75;;;14.90;99.90;;;;;;5083828;28;20090;-68
2022/06/06 02:06:15;;;;;;;27.10;13.77;;;14.90;99.90;;;;;;5087425;28;20497;-69
2022/06/06 02:08:42;;;;;;;18.30;12.68;;;14.80;99.90;;;;;;5085847;28;20043;-68
2022/06/06 02:11:09;;;;;;;22.27;13.98;;;14.80;99.90;;;;;;5089781;28;20039;-68
2022/06/06 02:13:35;;;;;;;20.90;12.32;;;14.70;99.90;;;;;;5086991;28;20118;-69
2022/06/06 02:16:02;;;;;;;18.70;10.80;;;14.70;99.90;;;;;;5081085;28;20040;-68
2022/06/06 02:18:28;;;;;;;19.63;10.50;;;14.70;99.90;;;;;;5091518;28;20417;-69
2022/06/06 02:20:54;;;;;;;18.85;10.30;;;14.70;99.90;;;;;;5087181;28;20032;-69
2022/06/06 02:23:21;;;;;;;16.50;10.60;;;14.60;99.90;;;;;;5102171;28;20489;-68
2022/06/06 02:25:46;;;;;;;18.42;9.88;;;14.60;99.90;;;;;;5088729;28;20047;-68
2022/06/06 02:28:12;;;;;;;19.58;9.18;;;14.60;99.90;;;;;;5084780;28;20374;-69
2022/06/06 02:30:38;;;;;;;21.88;10.50;;;14.50;99.90;;;;;;5088313;28;20054;-69
2022/06/06 02:33:05;;;;;;;21.23;9.02;;;14.50;99.90;;;;;;5087209;28;20102;-69
2022/06/06 02:35:36;;;;;;;17.95;8.35;;;14.50;99.90;;;;;;5084934;28;20048;-68
2022/06/06 02:38:02;;;;;;;15.38;8.90;;;14.50;99.90;;;;;;5081975;28;20043;-68
2022/06/06 02:40:28;;;;;;;14.15;7.15;;;14.40;99.90;;;;;;5078022;28;20851;-70
2022/06/06 02:42:54;;;;;;;12.20;7.35;;;14.40;99.90;;;;;;5086953;28;20043;-69
2022/06/06 02:45:20;;;;;;;15.95;7.13;;;14.40;99.90;;;;;;5083848;28;20036;-69
2022/06/06 02:47:52;;;;;;;14.88;8.25;;;14.40;99.90;;;;;;5090809;28;20037;-69
2022/06/06 02:50:21;;;;;;;16.33;8.05;;;14.30;99.90;;;;;;5088441;28;20747;-69
2022/06/06 02:52:47;;;;;;;14.63;7.57;;;14.30;99.90;;;;;;5086391;28;20058;-69
2022/06/06 02:55:14;;;;;;;14.00;8.02;;;14.30;99.90;;;;;;5087611;28;20047;-68
2022/06/06 02:57:41;;;;;;;21.05;9.18;;;14.30;99.90;;;;;;5087291;28;20052;-69
2022/06/06 03:00:10;;;;;;;12.20;8.52;;;14.30;99.90;;;;;;5104202;28;20597;-69
2022/06/06 03:02:36;;;;;;;14.30;8.13;;;14.30;99.90;;;;;;5084717;28;20158;-68
2022/06/06 03:05:06;;;;;;;16.40;9.00;;;14.30;99.90;;;;;;5087090;28;20130;-67
2022/06/06 03:07:53;;;;;;;13.73;8.07;;;14.20;99.90;;;;;;5090553;28;20052;-68
2022/06/06 03:10:28;;;;;;;14.77;8.55;;;14.20;99.90;;;;;;5086374;28;20489;-68
2022/06/06 03:13:05;;;;;;;15.25;7.95;;;14.20;99.90;;;;;;5088101;28;20075;-68
2022/06/06 03:22:10;;;;;;;13.00;8.30;;;14.30;99.90;;;;;;5079714;28;20099;-68
2022/06/06 03:25:06;;;;;;;17.58;8.90;;;14.20;99.90;;;;;;5082476;28;20122;-67
2022/06/06 03:27:59;;;;;;;15.18;9.35;;;14.20;99.90;;;;;;5085154;28;20051;-67
2022/06/06 03:30:58;;;;;;;14.48;9.63;;;14.20;99.90;;;;;;5083738;28;20130;-69
2022/06/06 03:33:56;;;;;;;14.88;9.45;;;14.20;99.90;;;;;;5081692;28;20056;-68
2022/06/06 03:36:49;;;;;;;19.33;10.48;;;14.20;99.90;;;;;;5069839;28;20098;-67
2022/06/06 03:39:26;;;;;;;14.30;9.73;;;14.20;99.90;;;;;;5087725;28;20093;-67
2022/06/06 03:42:04;;;;;;;16.90;9.93;;;14.10;99.90;;;;;;5079068;28;20151;-67
2022/06/06 03:44:54;;;;;;;21.73;10.32;;;14.20;99.90;;;;;;5085232;28;20126;-68
2022/06/06 03:47:48;;;;;;;16.95;10.02;;;14.10;99.90;;;;;;5106656;27;20082;-68
2022/06/06 03:50:39;;;;;;;16.50;9.82;;;14.20;99.90;;;;;;5088261;28;20456;-67
2022/06/06 03:53:37;;;;;;;14.82;9.48;;;14.10;99.90;;;;;;5084043;28;20050;-68
2022/06/06 03:56:24;;;;;;;18.45;9.95;;;14.10;99.90;;;;;;5076234;28;20523;-68
2022/06/06 03:58:51;;;;;;;14.55;9.52;;;14.10;99.90;;;;;;5101871;28;20378;-67
2022/06/06 04:01:21;;;;;;;13.52;9.10;;;14.10;99.90;;;;;;5068808;28;20098;-67
2022/06/06 04:03:49;;;;;;;11.40;8.32;;;14.10;99.90;;;;;;5084762;28;20044;-67
2022/06/06 04:06:17;;;;;;;11.23;8.35;;;14.10;99.90;;;;;;5087902;28;20047;-68
2022/06/06 04:08:43;;;;;;;13.85;8.60;;;14.10;99.90;;;;;;5083341;28;20044;-68
2022/06/06 04:11:27;;;;;;;12.02;7.03;;;14.10;99.90;;;;;;5085942;28;20052;-70
2022/06/06 04:14:24;;;;;;;13.57;8.60;;;14.10;99.90;;;;;;5077702;28;20051;-68
2022/06/06 04:17:14;;;;;;;11.45;7.80;;;14.10;99.90;;;;;;5083003;28;20105;-68
2022/06/06 04:19:59;;;;;;;13.52;7.85;;;14.20;99.90;;;;;;5086309;28;20113;-68
2022/06/06 04:22:52;;;;;;;13.82;8.30;;;14.10;99.90;;;;;;5081718;28;20432;-68
2022/06/06 04:25:50;;;;;;;9.23;6.90;;;14.10;99.90;;;;;;5088284;28;20036;-68
2022/06/06 04:28:21;;;;;;;12.23;7.18;;;14.20;99.90;;;;;;5054965;28;20502;-68
2022/06/06 04:31:10;;;;;;;11.82;7.57;;;14.20;99.90;;;;;;5089453;28;20131;-68
2022/06/06 04:33:42;;;;;;;10.60;8.02;;;14.20;99.90;;;;;;5087282;28;20043;-68
2022/06/06 04:36:28;;;;;;;9.60;6.82;;;14.20;99.90;;;;;;5080501;28;20056;-67
2022/06/06 04:39:00;;;;;;;10.35;7.20;;;14.10;99.90;;;;;;5081897;28;20047;-68
2022/06/06 04:41:38;;;;;;;12.48;6.38;;;14.10;99.90;;;;;;5088002;28;20524;-68
2022/06/06 04:44:18;;;;;;;8.77;6.35;;;14.20;99.90;;;;;;5089819;28;20046;-67
2022/06/06 04:46:55;;;;;;;7.45;6.10;;;14.20;99.90;;;;;;5090412;28;20930;-68
2022/06/06 04:49:22;;;;;;;7.43;5.63;;;14.20;99.90;;;;;;5087976;28;20113;-68
2022/06/06 04:51:49;;;;;;;8.20;6.10;;;14.20;99.90;;;;;;5090764;28;20051;-68
2022/06/06 04:54:18;;;;;;;7.32;6.15;;;14.20;99.90;;;;;;5090186;28;20052;-68
2022/06/06 04:56:45;;;;;;;9.20;6.07;;;14.20;99.90;;;;;;5088719;28;20056;-67
2022/06/06 04:59:12;;;;;;;6.93;5.20;;;14.20;99.90;;;;;;5090156;28;20060;-68
2022/06/06 05:01:40;;;;;;;7.03;4.43;;;14.20;99.90;;;;;;5082609;28;20052;-68
2022/06/06 05:04:06;;;;;;;4.82;4.10;;;14.20;99.90;;;;;;5089839;28;20406;-68
2022/06/06 05:06:58;;;;;;;5.97;3.80;;;14.20;99.90;;;;;;5079649;28;20051;-69
2022/06/06 05:09:45;;;;;;;4.65;3.40;;;14.20;99.90;;;;;;5088369;28;20043;-68
2022/06/06 05:12:24;;;;;;;4.40;3.50;;;14.20;99.90;;;;;;5089369;28;20040;-68
2022/06/06 05:15:11;;;;;;;5.25;4.30;;;14.20;99.90;;;;;;5090690;28;20048;-68
2022/06/06 05:17:43;;;;;;;6.80;3.80;;;14.20;99.90;;;;;;5091054;28;20049;-68
2022/06/06 05:20:26;;;;;;;7.07;4.55;;;14.20;99.90;;;;;;5096870;27;20493;-67
2022/06/06 05:23:13;;;;;;;8.30;4.88;;;14.20;99.90;;;;;;5091257;28;20044;-68
2022/06/06 05:26:00;;;;;;;9.05;4.57;;;14.20;99.90;;;;;;5088592;28;20047;-67
2022/06/06 05:28:36;;;;;;;7.68;4.78;;;14.10;99.90;;;;;;5088139;28;20076;-67
2022/06/06 05:31:44;;;;;;;8.35;5.15;;;14.00;99.90;;;;;;5089180;28;20076;-68
2022/06/06 05:34:16;;;;;;;8.10;4.85;;;14.00;99.90;;;;;;5081748;28;20726;-68
2022/06/06 05:37:13;;;;;;;8.73;5.18;;;14.00;99.90;;;;;;5072306;28;20055;-67
2022/06/06 05:39:55;;;;;;;7.75;5.30;;;14.00;99.90;;;;;;5089040;28;20130;-68
2022/06/06 05:42:38;;;;;;;8.45;5.28;;;14.00;99.90;;;;;;5089648;28;20167;-69
2022/06/06 05:45:35;;;;;;;14.48;6.47;;;14.00;99.90;;;;;;5082025;28;20109;-69
2022/06/06 05:48:25;;;;;;;11.48;6.13;;;14.00;99.90;;;;;;5085563;28;20044;-68
2022/06/06 05:50:58;;;;;;;9.90;6.10;;;14.00;99.90;;;;;;5089147;28;20261;-68
2022/06/06 05:53:39;;;;;;;14.05;6.80;;;14.00;99.90;;;;;;5072682;28;20056;-67
2022/06/06 05:56:38;;;;;;;12.40;6.97;;;13.90;99.90;;;;;;5090253;28;20051;-67
2022/06/06 05:59:34;;;;;;;14.93;7.72;;;13.90;99.90;;;;;;5082439;28;20052;-68
2022/06/06 06:02:25;;;;;;;18.70;8.20;;;13.90;99.90;;;;;;5088650;28;20056;-68
2022/06/06 06:05:32;;;;;;;17.98;8.48;;;13.90;99.90;;;;;;5099282;28;20051;-68
2022/06/06 06:08:06;;;;;;;14.73;8.13;;;13.90;99.90;;;;;;5088056;28;20091;-68
2022/06/06 06:10:47;;;;;;;13.95;7.53;;;13.90;99.90;;;;;;5085257;28;20048;-68
2022/06/06 06:13:16;;;;;;;13.30;7.10;;;13.90;99.90;;;;;;5088561;28;20043;-68
2022/06/06 06:15:44;;;;;;;15.23;7.65;;;13.80;99.90;;;;;;5084982;28;20041;-68
2022/06/06 06:18:15;;;;;;;10.93;6.68;;;13.90;99.90;;;;;;5090751;28;20097;-67
2022/06/06 06:20:54;;;;;;;11.65;7.05;;;13.90;99.90;;;;;;5080530;28;20501;-68
2022/06/06 06:23:25;;;;;;;10.98;6.55;;;13.90;99.90;;;;;;5089616;28;20040;-68
2022/06/06 06:25:53;;;;;;;15.15;7.05;;;13.80;99.90;;;;;;5090212;28;20048;-68
2022/06/06 06:28:18;;;;;;;14.95;7.03;;;13.80;99.90;;;;;;5088159;28;20040;-67
2022/06/06 06:31:03;;;;;;;12.85;7.35;;;13.80;99.90;;;;;;5080306;28;20551;-68
2022/06/06 06:33:53;;;;;;;17.33;7.75;;;13.80;99.90;;;;;;5087890;28;20081;-69
2022/06/06 06:36:22;;;;;;;19.75;8.52;;;13.80;99.90;;;;;;5087059;28;20410;-68
2022/06/06 06:39:23;;;;;;;12.48;8.27;;;13.70;99.90;;;;;;5082484;28;20036;-68
2022/06/06 06:42:28;;;;;;;12.32;7.65;;;13.80;99.90;;;;;;5084166;28;20130;-67
2022/06/06 06:45:08;;;;;;;12.85;6.75;;;13.70;99.90;;;;;;5083026;28;20083;-67
2022/06/06 06:47:35;;;;;;;12.73;6.30;;;13.70;99.90;;;;;;5079066;28;20520;-67
2022/06/06 06:50:17;;;;;;;9.20;5.85;;;13.70;99.90;;;;;;5084843;28;20044;-67
2022/06/06 06:53:08;;;;;;;10.35;5.05;;;13.70;99.90;;;;;;5103913;28;20075;-67
2022/06/06 06:55:55;;;;;;;13.82;5.20;;;13.70;99.90;;;;;;5060838;28;20052;-66
2022/06/06 06:58:44;;;;;;;9.98;4.68;;;13.80;99.90;;;;;;5086823;28;20142;-66
2022/06/06 07:01:25;;;;;;;7.60;3.92;;;13.80;99.90;;;;;;5087105;28;20063;-67
2022/06/06 07:10:27;;;;;;;8.13;3.90;;;13.90;99.90;;;;;;5083501;28;20115;-68
2022/06/06 07:12:52;;;;;;;8.68;4.20;;;14.00;99.90;;;;;;5087233;28;20410;-68
2022/06/06 07:15:55;;;;;;;7.13;3.80;;;14.10;99.90;;;;;;5087051;28;20052;-68
2022/06/06 07:18:26;;;;;;;10.63;4.63;;;14.20;99.90;;;;;;5085754;28;20119;-67
2022/06/06 07:20:52;;;;;;;6.43;3.83;;;14.30;99.90;;;;;;5087166;28;20047;-66
2022/06/06 07:23:21;;;;;;;7.25;4.10;;;14.40;99.90;;;;;;5069068;28;20044;-67
2022/06/06 07:25:49;;;;;;;9.15;3.90;;;14.40;99.90;;;;;;5086008;28;20130;-66
2022/06/06 07:28:18;;;;;;;18.10;4.40;;;14.40;99.90;;;;;;5084176;28;20047;-67
2022/06/06 07:31:20;;;;;;;7.22;3.50;;;14.40;99.90;;;;;;5086023;28;20094;-67
2022/06/06 07:34:11;;;;;;;5.18;3.65;;;14.30;99.90;;;;;;5083229;28;20129;-67
2022/06/06 07:36:52;;;;;;;7.15;3.60;;;14.40;99.90;;;;;;5090434;28;20438;-66
2022/06/06 07:39:36;;;;;;;5.70;3.30;;;14.40;99.90;;;;;;5084625;28;20044;-66
2022/06/06 07:42:42;;;;;;;9.35;3.85;;;14.50;99.90;;;;;;5083318;28;20052;-66
2022/06/06 07:45:35;;;;;;;8.25;3.58;;;14.70;99.90;;;;;;5024244;28;20049;-66
2022/06/06 07:48:22;;;;;;;8.80;3.45;;;14.80;99.90;;;;;;5088391;28;20456;-65
2022/06/06 07:51:03;;;;;;;8.02;3.13;;;14.70;99.90;;;;;;5083449;28;20047;-65
2022/06/06 07:54:11;;;;;;;5.22;2.90;;;14.70;99.90;;;;;;5088937;28;20044;-66
2022/06/06 07:56:43;;;;;;;7.32;3.28;;;14.80;99.90;;;;;;5085716;28;20056;-65
2022/06/06 07:59:38;;;;;;;6.20;2.95;;;14.90;99.90;;;;;;5085848;28;20043;-66
2022/06/06 08:02:25;;;;;;;9.50;2.80;;;15.00;99.90;;;;;;5083945;28;20079;-66
2022/06/06 08:05:02;;;;;;;6.95;3.15;;;15.10;99.90;;;;;;5076129;28;20075;-68
2022/06/06 08:07:42;;;;;;;7.85;3.00;;;15.40;99.90;;;;;;5086594;28;20044;-67
2022/06/06 08:10:39;;;;;;;6.05;3.05;;;15.50;99.90;;;;;;5083097;28;20052;-67
2022/06/06 08:13:14;;;;;;;7.10;3.13;;;15.70;99.90;;;;;;5083284;28;20530;-66
2022/06/06 08:15:42;;;;;;;5.30;2.80;;;15.80;99.90;;;;;;5086611;28;20067;-67
2022/06/06 08:18:42;;;;;;;4.50;2.70;;;15.80;99.90;;;;;;5079563;28;20047;-67
2022/06/06 08:21:22;;;;;;;5.25;2.80;;;15.80;99.90;;;;;;5086136;28;20130;-67
2022/06/06 08:23:52;;;;;;;7.15;3.38;;;15.70;99.90;;;;;;5084932;28;20048;-66
2022/06/06 08:26:19;;;;;;;6.82;3.40;;;15.60;99.90;;;;;;5085170;28;20048;-66
2022/06/06 08:28:45;;;;;;;9.07;4.00;;;15.60;99.90;;;;;;5087449;28;20069;-66
2022/06/06 08:31:11;;;;;;;6.13;3.92;;;15.60;99.90;;;;;;5083995;28;20324;-66
2022/06/06 08:33:37;;;;;;;7.13;3.78;;;15.50;99.90;;;;;;5087551;28;20055;-67
2022/06/06 08:36:27;;;;;;;9.38;4.22;;;15.60;99.90;;;;;;5085387;28;20579;-67
2022/06/06 08:39:02;;;;;;;6.57;3.50;;;15.70;99.90;;;;;;5077605;28;20059;-67
2022/06/06 08:41:58;;;;;;;7.60;4.00;;;15.80;99.90;;;;;;5086771;28;20135;-68
2022/06/06 08:44:48;;;;;;;8.45;4.55;;;16.10;99.90;;;;;;5089848;28;20049;-68
2022/06/06 08:47:25;;;;;;;14.93;5.35;;;16.30;99.90;;;;;;5080543;28;20093;-67
2022/06/06 08:52:56;;;;;;;11.07;4.82;;;16.60;99.90;;;;;;5087790;28;20044;-67
2022/06/06 08:55:56;;;;;;;9.02;4.32;;;16.90;99.90;;;;;;5082698;28;20051;-66
2022/06/06 08:58:43;;;;;;;8.40;4.57;;;16.90;99.90;;;;;;5085715;28;20056;-68
2022/06/06 09:01:26;;;;;;;7.80;4.03;;;16.70;99.90;;;;;;5085542;28;20063;-68
2022/06/06 09:04:17;;;;;;;9.48;3.88;;;16.60;99.90;;;;;;5093423;28;20493;-68
2022/06/06 09:07:06;;;;;;;5.97;3.00;;;16.50;99.90;;;;;;5086584;28;20063;-68
2022/06/06 09:10:08;;;;;;;6.60;3.45;;;16.50;99.90;;;;;;5086384;28;20069;-68
2022/06/06 09:13:11;;;;;;;9.30;3.67;;;16.50;99.90;;;;;;5033656;28;20087;-68
2022/06/06 09:15:40;;;;;;;7.63;3.45;;;16.50;99.90;;;;;;5083702;28;20094;-67
2022/06/06 09:18:37;;;;;;;4.93;3.10;;;16.50;99.90;;;;;;5087142;28;20044;-68
2022/06/06 09:21:41;;;;;;;7.28;3.50;;;16.50;99.90;;;;;;5090033;28;20071;-68
2022/06/06 09:24:22;;;;;;;7.20;3.55;;;16.40;99.90;;;;;;5089766;28;20040;-68
2022/06/06 09:27:00;;;;;;;8.02;3.70;;;16.40;99.90;;;;;;5080375;28;20044;-68
2022/06/06 09:30:06;;;;;;;9.07;3.60;;;16.40;99.90;;;;;;5088697;28;20138;-68
2022/06/06 09:32:47;;;;;;;7.00;3.70;;;16.40;99.90;;;;;;5068617;28;20417;-67
2022/06/06 09:35:32;;;;;;;8.50;3.63;;;16.50;99.90;;;;;;5088068;28;20040;-68
2022/06/06 09:38:19;;;;;;;8.25;3.85;;;16.80;99.90;;;;;;5084326;28;20051;-68
2022/06/06 09:41:11;;;;;;;8.60;3.10;;;17.10;99.90;;;;;;5085550;28;20582;-67
2022/06/06 09:43:55;;;;;;;6.50;3.78;;;17.40;99.90;;;;;;5081482;28;20048;-68
2022/06/06 09:46:27;;;;;;;9.98;3.38;;;17.60;99.90;;;;;;5084054;28;20055;-69
2022/06/06 09:49:05;;;;;;;7.75;3.10;;;17.50;99.90;;;;;;5087233;28;20469;-70
2022/06/06 09:52:00;;;;;;;11.43;3.22;;;17.40;99.90;;;;;;5087965;28;20051;-69
2022/06/06 10:01:13;;;;;;;12.07;3.38;;;17.70;99.90;;;;;;5086512;28;20052;-68
2022/06/06 10:03:44;;;;;;;7.68;3.15;;;17.80;99.90;;;;;;5089345;28;20052;-70
2022/06/06 10:06:13;;;;;;;8.68;2.88;;;17.90;99.90;;;;;;5089353;28;20177;-69
2022/06/06 10:08:44;;;;;;;6.75;2.47;;;18.10;99.90;;;;;;5088118;28;20171;-68
2022/06/06 10:11:39;;;;;;;6.75;2.17;;;18.30;99.90;;;;;;5086235;28;20083;-68
2022/06/06 10:14:34;;;;;;;8.32;2.20;;;18.50;99.90;;;;;;5067366;28;20154;-69
2022/06/06 10:17:31;;;;;;;8.13;2.47;;;18.30;99.90;;;;;;5087376;28;20043;-69
2022/06/06 10:20:07;;;;;;;6.18;2.00;;;18.40;99.90;;;;;;5082449;28;20040;-68
2022/06/06 10:22:51;;;;;;;4.40;1.88;;;18.50;99.90;;;;;;5089454;28;20060;-68
2022/06/06 10:25:35;;;;;;;10.02;2.55;;;18.60;99.90;;;;;;5089085;28;20048;-67
2022/06/06 10:28:04;;;;;;;7.45;3.13;;;18.90;99.90;;;;;;5087774;28;20078;-68
2022/06/06 10:30:55;;;;;;;6.82;2.00;;;19.20;99.90;;;;;;5064885;28;20458;-67
2022/06/06 10:33:33;;;;;;;5.30;1.95;;;19.60;99.90;;;;;;5087817;28;20060;-67
2022/06/06 10:36:18;;;;;;;8.13;1.80;;;19.60;99.90;;;;;;5090585;28;20584;-68
2022/06/06 10:39:21;;;;;;;4.00;1.60;;;19.70;99.90;;;;;;5070381;28;20382;-68
2022/06/06 10:42:03;;;;;;;5.03;1.50;;;19.80;99.90;;;;;;5088874;28;20067;-67
2022/06/06 10:44:59;;;;;;;5.40;1.83;;;19.90;99.90;;;;;;5083472;28;20421;-67
2022/06/06 10:47:52;;;;;;;10.15;2.15;;;20.40;99.90;;;;;;5085303;28;20520;-66
2022/06/06 10:50:20;;;;;;;7.15;1.77;;;20.50;99.90;;;;;;5105289;28;20106;-67
2022/06/06 10:52:58;;;;;;;8.73;1.75;;;20.30;99.90;;;;;;5077243;28;20226;-67
2022/06/06 10:56:11;;;;;;;8.23;1.95;;;20.00;99.90;;;;;;5080498;28;20048;-67
2022/06/06 10:59:03;;;;;;;5.15;1.48;;;20.00;99.90;;;;;;5087133;28;20048;-67
2022/06/06 11:02:13;;;;;;;8.65;1.80;;;20.00;99.90;;;;;;5079767;28;20057;-67
2022/06/06 11:04:39;;;;;;;;;;;19.90;99.90;;;;;;5072699;28;20052;-67
2022/06/06 11:07:19;;;;;;;7.03;2.03;;;19.60;99.90;;;;;;5096428;28;20438;-67
2022/06/06 11:10:23;;;;;;;11.23;1.83;;;19.50;99.90;;;;;;5088755;28;20190;-67
2022/06/06 11:12:49;;;;;;;15.63;2.40;;;19.20;99.90;;;;;;5089078;28;20570;-68
2022/06/06 11:15:14;;;;;;;7.70;1.35;;;19.40;99.90;;;;;;5086456;28;20040;-68
2022/06/06 11:18:07;;;;;;;5.30;1.30;;;19.80;99.90;;;;;;5094966;28;20079;-68
2022/06/06 11:20:33;;;;;;;4.45;1.38;;;19.80;99.90;;;;;;5088803;28;20078;-66
2022/06/06 11:23:11;;;;;;;10.60;1.95;;;19.60;99.90;;;;;;5088714;28;20055;-67
2022/06/06 11:25:53;;;;;;;6.53;1.50;;;19.40;99.90;;;;;;5082977;28;20506;-66
2022/06/06 11:28:38;;;;;;;4.53;1.30;;;19.60;99.90;;;;;;5086175;28;20472;-67
2022/06/06 11:31:08;;;;;;;6.40;1.55;;;20.10;99.90;;;;;;5070475;28;20520;-67
2022/06/06 11:33:35;;;;;;;8.68;1.73;;;20.70;99.90;;;;;;5070612;28;20056;-67
2022/06/06 11:36:10;;;;;;;12.98;1.77;;;20.70;99.90;;;;;;5083969;28;20113;-67
2022/06/06 11:39:16;;;;;;;5.05;1.45;;;20.40;99.90;;;;;;5080168;28;20189;-68
2022/06/06 11:42:16;;;;;;;3.78;1.40;;;20.00;99.90;;;;;;5082437;28;20062;-66
2022/06/06 11:45:00;;;;;;;7.45;2.20;;;19.40;99.90;;;;;;5091293;28;20043;-66
2022/06/06 11:47:26;;;;;;;4.93;1.90;;;18.80;99.90;;;;;;5084131;28;20087;-66
2022/06/06 11:50:32;;;;;;;7.32;1.80;;;18.50;99.90;;;;;;5101165;28;20105;-66
2022/06/06 11:53:10;;;;;;;12.98;1.95;;;18.30;99.90;;;;;;5080002;28;20130;-68
2022/06/06 11:56:02;;;;;;;7.55;1.85;;;18.00;99.90;;;;;;5087266;28;20055;-66
2022/06/06 11:58:56;;;;;;;3.38;1.45;;;18.20;99.90;;;;;;5083045;28;20074;-67
2022/06/06 12:01:46;;;;;;;7.43;1.75;;;18.70;99.90;;;;;;5085560;28;20056;-66
2022/06/06 12:04:27;;;;;;;9.15;2.00;;;19.20;99.90;;;;;;5087146;28;20052;-66
2022/06/06 12:07:04;;;;;;;6.53;2.17;;;19.30;99.90;;;;;;5078229;28;20075;-67
2022/06/06 12:09:39;;;;;;;3.50;1.60;;;19.30;99.90;;;;;;5091795;28;20409;-66
2022/06/06 12:12:39;;;;;;;5.90;1.98;;;19.10;99.90;;;;;;5084480;28;20140;-66
2022/06/06 12:15:36;;;;;;;6.55;2.47;;;18.80;99.90;;;;;;5095247;28;20044;-67
2022/06/06 12:18:15;;;;;;;4.57;1.80;;;18.50;99.90;;;;;;5071909;28;20056;-66
2022/06/06 12:21:05;;;;;;;6.30;1.60;;;18.40;99.90;;;;;;5079761;28;20075;-67
2022/06/06 12:24:00;;;;;;;6.00;1.95;;;18.20;99.90;;;;;;5088875;28;20079;-68
2022/06/06 12:26:31;;;;;;;5.28;1.60;;;18.30;99.90;;;;;;5085003;28;20048;-67
2022/06/06 12:29:31;;;;;;;5.82;1.90;;;18.50;99.90;;;;;;5083244;28;20052;-67
2022/06/06 12:32:06;;;;;;;;;;;18.90;99.90;;;;;;5078663;28;20070;-67
2022/06/06 12:34:37;;;;;;;3.65;1.60;;;19.10;99.90;;;;;;5080834;28;19919;-67
2022/06/06 12:37:35;;;;;;;5.03;1.63;;;19.10;99.90;;;;;;5088895;28;20051;-67
2022/06/06 12:40:26;;;;;;;5.70;1.83;;;18.90;99.90;;;;;;5076261;28;20044;-66
2022/06/06 12:43:39;;;;;;;6.43;2.10;;;18.60;99.90;;;;;;5089801;28;20040;-65
2022/06/06 12:46:34;;;;;;;8.18;2.10;;;18.10;99.90;;;;;;5087150;28;20090;-67
2022/06/06 12:49:26;;;;;;;5.82;2.00;;;17.80;99.90;;;;;;5070375;28;20098;-68
2022/06/06 12:52:32;;;;;;;4.35;2.05;;;17.60;99.90;;;;;;5087681;28;20040;-66
2022/06/06 12:55:33;;;;;;;9.77;2.78;;;17.20;99.90;;;;;;5089413;28;20040;-65
2022/06/06 12:58:31;;;;;;;8.20;2.28;;;17.00;99.90;;;;;;5093229;28;20044;-68
2022/06/06 13:01:37;;;;;;;6.57;2.63;;;16.80;99.90;;;;;;5087303;28;20098;-66
2022/06/06 13:04:41;;;;;;;9.05;2.38;;;16.70;99.90;;;;;;5041112;28;20097;-67
2022/06/06 13:07:18;;;;;;;6.13;2.03;;;16.50;99.90;;;;;;5097204;28;20047;-66
2022/06/06 13:09:52;;;;;;;5.50;2.60;;;16.30;99.90;;;;;;5084840;28;20127;-68
2022/06/06 13:12:40;;;;;;;8.55;2.80;;;16.10;99.90;;;;;;5093183;28;20490;-67
2022/06/06 13:15:33;;;;;;;9.80;2.65;;;16.00;99.90;;;;;;5087070;28;20052;-66
2022/06/06 13:18:40;;;;;;;9.05;2.60;;;16.00;99.90;;;;;;5087746;28;20044;-67
2022/06/06 13:21:34;;;;;;;6.93;2.35;;;15.90;99.90;;;;;;5087723;28;20044;-67
2022/06/06 13:24:22;;;;;;;4.38;2.28;;;15.90;99.90;;;;;;5086663;28;20081;-67
2022/06/06 13:26:52;;;;;;;5.93;2.17;;;15.80;99.90;;;;;;5100294;28;20047;-66
2022/06/06 13:29:26;;;;;;;6.82;2.45;;;15.90;99.90;;;;;;5081473;28;20460;-68
2022/06/06 13:31:57;;;;;;;7.30;2.40;;;16.00;99.90;;;;;;5086611;28;20159;-67
2022/06/06 13:34:36;;;;;;;8.48;2.30;;;16.10;99.90;;;;;;5088281;28;20054;-67
2022/06/06 13:37:25;;;;;;;5.35;2.28;;;16.20;99.90;;;;;;5087830;28;20127;-67
2022/06/06 13:40:02;;;;;;;5.03;2.35;;;16.20;99.90;;;;;;5076831;28;20052;-66
2022/06/06 13:42:31;;;;;;;10.35;2.58;;;16.10;99.90;;;;;;5086154;28;20129;-68
2022/06/06 13:45:26;;;;;;;9.23;3.53;;;16.00;99.90;;;;;;5087970;28;20130;-67
2022/06/06 13:48:26;;;;;;;6.82;2.47;;;15.90;99.90;;;;;;5086070;28;20047;-67
2022/06/06 13:50:55;;;;;;;11.73;3.45;;;15.80;99.90;;;;;;5089514;28;20395;-67
2022/06/06 13:53:41;;;;;;;8.57;3.70;;;15.70;99.90;;;;;;5086963;28;20457;-69
2022/06/06 13:56:28;;;;;;;5.60;3.67;;;15.60;99.90;;;;;;5085881;28;20452;-69
2022/06/06 13:59:13;;;;;;;8.93;3.50;;;15.40;99.90;;;;;;5081600;28;20048;-68
2022/06/06 14:02:07;;;;;;;12.02;3.88;;;15.30;99.90;;;;;;5085019;28;20048;-69
2022/06/06 14:04:51;;;;;;;7.82;3.70;;;15.30;99.90;;;;;;5085250;28;20398;-69
2022/06/06 14:07:31;;;;;;;8.00;4.07;;;15.20;99.90;;;;;;5087417;28;20048;-69
2022/06/06 14:10:05;;;;;;;9.85;4.90;;;15.20;99.90;;;;;;5085275;28;20044;-69
2022/06/06 14:13:20;;;;;;;9.38;4.72;;;15.10;99.90;;;;;;5088426;28;20040;-68
2022/06/06 14:15:47;;;;;;;11.88;5.20;;;15.10;99.90;;;;;;5064267;28;20659;-69
2022/06/06 14:18:26;;;;;;;10.60;5.17;;;15.00;99.90;;;;;;5089423;28;20064;-68